Time;durP1;ratioP1;P1;durP2;ratioP2;P2;SDS_P1;SDS_P2;PMS_P1;PMS_P2;Temp;Humidity;BMP_temperature;BMP_pressure;BME280_temperature;BME280_humidity;BME280_pressure;Samples;Min_cycle;Max_cycle;Signal;HPM_P1;HPM_P2
2021/04/15 00:01:49;;;;;;;13.00;7.03;;;;;;;;;;4962901;29;20034;-83
2021/04/15 00:04:15;;;;;;;15.32;7.20;;;;;;;;;;4946052;29;20035;-84
2021/04/15 00:06:41;;;;;;;13.98;7.15;;;;;;;;;;4945976;29;20065;-84
2021/04/15 00:09:09;;;;;;;13.52;7.07;;;;;;;;;;4962897;29;20027;-84
2021/04/15 00:11:36;;;;;;;16.98;8.30;;;;;;;;;;4962805;29;20032;-84
2021/04/15 00:14:02;;;;;;;16.17;7.75;;;;;;;;;;4962833;29;20035;-84
2021/04/15 00:16:29;;;;;;;12.25;6.72;;;;;;;;;;4962654;29;20074;-85
2021/04/15 00:18:56;;;;;;;12.75;7.43;;;;;;;;;;4962733;29;20034;-85
2021/04/15 00:21:22;;;;;;;12.68;6.88;;;;;;;;;;4962864;29;20028;-84
2021/04/15 00:23:48;;;;;;;12.75;6.82;;;;;;;;;;4962638;29;20031;-84
2021/04/15 00:26:15;;;;;;;11.07;6.90;;;;;;;;;;4962440;29;20058;-85
2021/04/15 00:28:41;;;;;;;12.40;5.95;;;;;;;;;;4962523;28;20311;-84
2021/04/15 00:31:07;;;;;;;9.27;5.63;;;;;;;;;;4945622;29;20029;-85
2021/04/15 00:33:33;;;;;;;11.88;6.00;;;;;;;;;;4962606;29;20024;-85
2021/04/15 00:36:00;;;;;;;10.50;5.95;;;;;;;;;;4945655;29;20019;-86
2021/04/15 00:38:26;;;;;;;12.73;6.80;;;;;;;;;;4962587;28;20027;-86
2021/04/15 00:40:53;;;;;;;11.38;6.65;;;;;;;;;;4962420;29;20034;-85
2021/04/15 00:43:21;;;;;;;10.80;5.80;;;;;;;;;;4962423;28;20050;-84
2021/04/15 00:45:48;;;;;;;13.40;6.53;;;;;;;;;;4962385;29;20023;-85
2021/04/15 00:48:17;;;;;;;10.57;6.30;;;;;;;;;;4962114;29;20031;-85
2021/04/15 00:50:49;;;;;;;12.38;6.38;;;;;;;;;;4945294;29;20023;-84
2021/04/15 00:53:20;;;;;;;10.73;5.65;;;;;;;;;;4962184;29;20031;-85
2021/04/15 00:55:47;;;;;;;12.20;5.88;;;;;;;;;;4962071;29;20114;-84
2021/04/15 00:58:13;;;;;;;10.98;5.82;;;;;;;;;;4960927;28;20027;-84
2021/04/15 01:00:40;;;;;;;12.40;5.30;;;;;;;;;;4961931;29;20044;-85
2021/04/15 01:03:06;;;;;;;9.93;5.43;;;;;;;;;;4962237;29;20027;-84
2021/04/15 01:05:43;;;;;;;8.93;5.78;;;;;;;;;;4962186;29;20031;-84
2021/04/15 01:08:09;;;;;;;9.43;5.80;;;;;;;;;;4961807;28;20299;-83
2021/04/15 01:10:39;;;;;;;9.63;5.72;;;;;;;;;;4961609;29;20047;-84
2021/04/15 01:13:17;;;;;;;9.95;5.65;;;;;;;;;;4961792;29;20030;-86
2021/04/15 01:15:59;;;;;;;10.90;5.90;;;;;;;;;;4944905;29;20028;-87
2021/04/15 01:18:33;;;;;;;12.43;5.32;;;;;;;;;;4962034;29;20035;-85
2021/04/15 01:21:22;;;;;;;10.13;5.43;;;;;;;;;;4961705;29;20106;-86
2021/04/15 01:23:57;;;;;;;9.43;5.65;;;;;;;;;;4868688;29;20437;-84
2021/04/15 01:26:38;;;;;;;10.98;5.72;;;;;;;;;;4868545;29;20105;-85
2021/04/15 01:29:14;;;;;;;9.80;5.10;;;;;;;;;;4868531;29;20045;-84
2021/04/15 01:31:40;;;;;;;9.77;5.60;;;;;;;;;;4883930;29;20061;-86
2021/04/15 01:34:44;;;;;;;10.65;6.38;;;;;;;;;;4884026;29;20029;-86
2021/04/15 01:37:26;;;;;;;8.90;5.50;;;;;;;;;;4828602;29;20030;-86
2021/04/15 01:40:02;;;;;;;11.95;5.50;;;;;;;;;;4828610;29;20039;-85
2021/04/15 01:42:32;;;;;;;8.32;5.13;;;;;;;;;;4828679;29;20087;-86
2021/04/15 01:45:03;;;;;;;10.38;5.15;;;;;;;;;;4828505;29;20038;-86
2021/04/15 01:47:41;;;;;;;7.95;5.07;;;;;;;;;;4828377;29;20046;-86
2021/04/15 01:50:19;;;;;;;9.38;5.18;;;;;;;;;;4828513;29;20072;-85
2021/04/15 01:52:46;;;;;;;7.05;4.50;;;;;;;;;;4828456;29;20030;-86
2021/04/15 01:55:19;;;;;;;9.88;5.03;;;;;;;;;;4828295;29;20113;-86
2021/04/15 01:57:49;;;;;;;7.70;5.07;;;;;;;;;;4828564;29;20054;-87
2021/04/15 02:00:15;;;;;;;9.90;5.57;;;;;;;;;;4849584;29;20044;-87
2021/04/15 02:02:43;;;;;;;8.73;5.22;;;;;;;;;;4902332;29;20101;-87
2021/04/15 02:05:14;;;;;;;12.20;5.30;;;;;;;;;;4902292;29;20028;-85
2021/04/15 02:08:13;;;;;;;8.90;5.07;;;;;;;;;;4926399;29;20059;-86
2021/04/15 02:10:46;;;;;;;8.75;5.03;;;;;;;;;;4883045;29;20057;-87
2021/04/15 02:13:13;;;;;;;7.47;4.95;;;;;;;;;;4883422;29;20033;-86
2021/04/15 02:15:46;;;;;;;10.40;5.00;;;;;;;;;;4883213;29;20073;-86
2021/04/15 02:18:14;;;;;;;11.18;5.28;;;;;;;;;;4883420;29;20043;-85
2021/04/15 02:20:40;;;;;;;6.93;4.70;;;;;;;;;;4883312;29;20041;-86
2021/04/15 02:23:13;;;;;;;12.27;5.40;;;;;;;;;;4867670;29;20033;-86
2021/04/15 02:25:41;;;;;;;7.72;4.53;;;;;;;;;;4883290;29;20068;-87
2021/04/15 02:28:10;;;;;;;9.82;5.55;;;;;;;;;;4883178;29;20033;-86
2021/04/15 02:30:36;;;;;;;11.02;4.53;;;;;;;;;;4883329;29;20065;-86
2021/04/15 02:33:05;;;;;;;8.55;5.07;;;;;;;;;;4883238;29;20041;-87
2021/04/15 02:35:38;;;;;;;7.55;4.97;;;;;;;;;;4883038;29;20040;-87
2021/04/15 02:38:05;;;;;;;7.03;4.38;;;;;;;;;;4882906;29;20108;-84
2021/04/15 02:40:38;;;;;;;8.60;4.95;;;;;;;;;;4882711;29;20048;-86
2021/04/15 02:43:10;;;;;;;10.27;4.70;;;;;;;;;;4882711;29;20141;-84
2021/04/15 02:45:40;;;;;;;11.68;5.28;;;;;;;;;;4886807;29;20445;-85
2021/04/15 02:48:10;;;;;;;9.88;4.70;;;;;;;;;;4943037;29;20039;-85
2021/04/15 02:50:37;;;;;;;8.63;4.90;;;;;;;;;;4960135;29;20023;-85
2021/04/15 02:53:12;;;;;;;12.60;5.13;;;;;;;;;;4960339;29;20023;-84
2021/04/15 02:55:46;;;;;;;11.30;5.60;;;;;;;;;;4960172;29;20108;-84
2021/04/15 02:58:19;;;;;;;13.38;8.00;;;;;;;;;;4959794;29;20110;-84
2021/04/15 03:00:46;;;;;;;13.15;6.85;;;;;;;;;;4960070;29;20035;-84
2021/04/15 03:03:14;;;;;;;11.48;5.50;;;;;;;;;;4959777;29;20028;-85
2021/04/15 03:06:09;;;;;;;11.63;5.88;;;;;;;;;;4959792;29;20027;-85
2021/04/15 03:08:35;;;;;;;9.35;5.20;;;;;;;;;;4959772;28;20027;-84
2021/04/15 03:11:27;;;;;;;15.32;6.50;;;;;;;;;;4959351;29;20058;-85
2021/04/15 03:13:57;;;;;;;10.48;6.10;;;;;;;;;;4882347;29;20381;-86
2021/04/15 03:16:31;;;;;;;10.70;6.53;;;;;;;;;;4866595;29;20136;-85
2021/04/15 03:19:02;;;;;;;13.80;6.63;;;;;;;;;;4866078;29;20041;-85
2021/04/15 03:21:33;;;;;;;14.10;6.57;;;;;;;;;;4865791;29;20515;-85
2021/04/15 03:24:13;;;;;;;13.35;6.95;;;;;;;;;;4882214;29;20052;-85
2021/04/15 03:26:56;;;;;;;11.95;7.05;;;;;;;;;;4882019;29;20081;-85
2021/04/15 03:29:23;;;;;;;;;;;;;;;;;;4882544;29;20050;-84
2021/04/15 03:31:55;;;;;;;12.43;6.78;;;;;;;;;;4882224;29;19919;-84
2021/04/15 03:34:27;;;;;;;12.10;6.95;;;;;;;;;;4882075;29;20025;-84
2021/04/15 03:36:55;;;;;;;13.45;6.28;;;;;;;;;;4882126;29;20068;-86
2021/04/15 03:39:26;;;;;;;20.65;7.70;;;;;;;;;;4882249;29;20033;-87
2021/04/15 03:41:54;;;;;;;13.38;7.28;;;;;;;;;;4882357;29;20037;-86
2021/04/15 03:44:33;;;;;;;12.25;7.05;;;;;;;;;;4881928;29;20081;-85
2021/04/15 03:47:08;;;;;;;11.05;7.25;;;;;;;;;;4881993;29;20029;-86
2021/04/15 03:49:37;;;;;;;13.10;7.03;;;;;;;;;;4886350;29;20033;-86
2021/04/15 03:52:05;;;;;;;16.23;7.97;;;;;;;;;;4942415;29;20028;-86
2021/04/15 03:54:37;;;;;;;17.30;7.72;;;;;;;;;;4959212;29;20078;-85
2021/04/15 03:57:04;;;;;;;16.45;7.90;;;;;;;;;;4959212;29;20089;-86
2021/04/15 03:59:48;;;;;;;16.85;7.88;;;;;;;;;;4959429;28;20032;-86
2021/04/15 04:02:29;;;;;;;18.70;7.25;;;;;;;;;;4959572;29;20035;-85
2021/04/15 04:05:07;;;;;;;14.40;7.63;;;;;;;;;;4959307;29;20042;-86
2021/04/15 04:07:38;;;;;;;19.17;8.57;;;;;;;;;;4959508;29;20059;-84
2021/04/15 04:10:07;;;;;;;15.50;8.18;;;;;;;;;;4958981;28;20047;-85
2021/04/15 04:12:47;;;;;;;18.55;8.82;;;;;;;;;;4942351;29;20042;-85
2021/04/15 04:15:20;;;;;;;13.88;7.90;;;;;;;;;;4959006;29;20082;-85
2021/04/15 04:17:49;;;;;;;13.55;7.50;;;;;;;;;;4959053;29;20410;-86
2021/04/15 04:20:15;;;;;;;14.55;7.90;;;;;;;;;;4958879;29;20047;-88
2021/04/15 04:22:49;;;;;;;15.55;7.78;;;;;;;;;;4959369;29;20031;-86
2021/04/15 04:25:26;;;;;;;15.80;8.90;;;;;;;;;;4942061;29;20031;-85
2021/04/15 04:27:51;;;;;;;17.00;9.27;;;;;;;;;;4958916;28;20473;-85
2021/04/15 04:30:26;;;;;;;18.17;8.82;;;;;;;;;;4958862;29;20110;-84
2021/04/15 04:32:58;;;;;;;16.25;10.00;;;;;;;;;;4959974;28;20038;-85
2021/04/15 04:35:26;;;;;;;23.58;10.88;;;;;;;;;;4945474;29;20489;-84
2021/04/15 04:37:53;;;;;;;16.92;9.35;;;;;;;;;;4962566;29;20035;-84
2021/04/15 04:40:19;;;;;;;18.92;9.65;;;;;;;;;;4962467;29;20323;-86
2021/04/15 04:42:48;;;;;;;21.40;9.38;;;;;;;;;;4962694;29;20027;-86
2021/04/15 04:45:18;;;;;;;17.15;8.57;;;;;;;;;;4962340;29;20055;-85
2021/04/15 04:47:51;;;;;;;20.17;8.98;;;;;;;;;;4962587;29;20043;-86
2021/04/15 04:50:23;;;;;;;20.75;8.98;;;;;;;;;;4945497;29;20046;-85
2021/04/15 04:52:56;;;;;;;17.23;9.15;;;;;;;;;;4962322;29;20034;-85
2021/04/15 04:55:43;;;;;;;18.83;9.30;;;;;;;;;;4962277;29;20034;-86
2021/04/15 04:58:10;;;;;;;17.80;8.75;;;;;;;;;;4961846;28;20027;-85
2021/04/15 05:00:38;;;;;;;14.90;8.57;;;;;;;;;;4962253;29;20030;-85
2021/04/15 05:03:04;;;;;;;16.00;9.25;;;;;;;;;;4961915;29;20027;-85
2021/04/15 05:05:32;;;;;;;18.10;9.32;;;;;;;;;;4961942;29;20027;-85
2021/04/15 05:08:01;;;;;;;18.88;9.43;;;;;;;;;;4944881;29;20041;-84
2021/04/15 05:10:29;;;;;;;17.40;8.57;;;;;;;;;;4961578;28;20043;-85
2021/04/15 05:13:25;;;;;;;15.57;8.88;;;;;;;;;;4961935;28;20027;-85
2021/04/15 05:15:52;;;;;;;15.32;8.68;;;;;;;;;;4884376;29;20040;-85
2021/04/15 05:18:20;;;;;;;15.30;8.68;;;;;;;;;;4868893;29;20033;-85
2021/04/15 05:20:47;;;;;;;17.52;8.93;;;;;;;;;;4884316;29;20033;-83
2021/04/15 05:23:19;;;;;;;21.42;9.25;;;;;;;;;;4884390;29;20116;-85
2021/04/15 05:25:55;;;;;;;19.80;9.60;;;;;;;;;;4884044;29;20048;-84
2021/04/15 05:28:22;;;;;;;18.20;9.27;;;;;;;;;;4883798;29;20451;-84
2021/04/15 05:30:50;;;;;;;15.68;8.85;;;;;;;;;;4884210;29;20355;-86
2021/04/15 05:33:20;;;;;;;21.92;10.20;;;;;;;;;;4884270;29;20064;-86
2021/04/15 05:35:52;;;;;;;22.27;11.13;;;;;;;;;;4883911;29;20048;-85
2021/04/15 05:38:18;;;;;;;17.17;9.20;;;;;;;;;;4868154;29;20040;-87
2021/04/15 05:40:47;;;;;;;17.33;10.07;;;;;;;;;;4883910;29;20033;-85
2021/04/15 05:43:27;;;;;;;16.58;8.68;;;;;;;;;;4883883;29;20459;-73
2021/04/15 05:46:00;;;;;;;20.58;9.18;;;;;;;;;;4882432;29;20123;-73
2021/04/15 05:48:27;;;;;;;18.73;9.40;;;;;;;;;;4882948;29;20080;-73
2021/04/15 05:50:54;;;;;;;16.20;9.07;;;;;;;;;;4867440;29;20033;-73
2021/04/15 05:53:22;;;;;;;18.00;9.15;;;;;;;;;;4958551;29;20322;-75
2021/04/15 05:56:02;;;;;;;18.88;10.13;;;;;;;;;;4943512;29;20310;-73
2021/04/15 05:58:36;;;;;;;18.55;10.20;;;;;;;;;;4960409;29;20032;-73
2021/04/15 06:01:08;;;;;;;19.10;9.63;;;;;;;;;;4960303;29;20526;-73
2021/04/15 06:03:51;;;;;;;17.02;9.20;;;;;;;;;;4960365;29;20429;-73
2021/04/15 06:06:19;;;;;;;19.38;11.27;;;;;;;;;;4960287;29;20035;-74
2021/04/15 06:08:47;;;;;;;20.90;15.05;;;;;;;;;;4960367;29;20068;-73
2021/04/15 06:11:32;;;;;;;22.33;13.90;;;;;;;;;;4960047;29;20050;-73
2021/04/15 06:14:00;;;;;;;17.92;9.95;;;;;;;;;;4960009;28;20104;-73
2021/04/15 06:16:29;;;;;;;17.17;10.73;;;;;;;;;;4959979;29;20306;-73
2021/04/15 06:19:02;;;;;;;17.25;9.68;;;;;;;;;;4960039;29;20030;-73
2021/04/15 06:21:30;;;;;;;17.70;9.40;;;;;;;;;;4960151;29;20027;-74
2021/04/15 06:23:59;;;;;;;14.20;9.07;;;;;;;;;;4959997;29;20048;-74
2021/04/15 06:26:28;;;;;;;15.35;9.65;;;;;;;;;;4959822;29;20502;-73
2021/04/15 06:28:56;;;;;;;17.10;8.93;;;;;;;;;;4959990;28;20031;-73
2021/04/15 06:31:25;;;;;;;16.83;9.63;;;;;;;;;;4959867;29;20059;-73
2021/04/15 06:33:52;;;;;;;16.25;10.15;;;;;;;;;;4959758;29;20094;-73
2021/04/15 06:36:24;;;;;;;20.35;9.90;;;;;;;;;;4959463;29;20284;-73
2021/04/15 06:38:59;;;;;;;16.38;9.25;;;;;;;;;;4959407;28;20023;-74
2021/04/15 06:41:25;;;;;;;16.35;9.57;;;;;;;;;;4959552;29;20063;-73
2021/04/15 06:44:03;;;;;;;16.42;10.25;;;;;;;;;;4959711;29;20055;-73
2021/04/15 06:46:38;;;;;;;17.75;10.75;;;;;;;;;;4942459;29;20046;-73
2021/04/15 06:49:07;;;;;;;16.40;9.90;;;;;;;;;;4942486;29;20043;-73
2021/04/15 06:51:38;;;;;;;18.20;10.20;;;;;;;;;;4959472;29;20023;-73
2021/04/15 06:54:04;;;;;;;15.20;9.65;;;;;;;;;;4959432;29;20070;-73
2021/04/15 06:56:42;;;;;;;15.63;9.82;;;;;;;;;;4959453;28;20023;-73
2021/04/15 06:59:11;;;;;;;18.38;10.18;;;;;;;;;;4959331;29;20110;-74
2021/04/15 07:01:56;;;;;;;20.40;11.15;;;;;;;;;;4959359;29;20313;-74
2021/04/15 07:04:28;;;;;;;18.42;10.73;;;;;;;;;;4959469;29;20146;-74
2021/04/15 07:06:57;;;;;;;19.67;11.20;;;;;;;;;;4959158;29;20031;-74
2021/04/15 07:09:42;;;;;;;27.08;11.23;;;;;;;;;;4958964;29;20051;-74
2021/04/15 07:12:11;;;;;;;14.98;10.40;;;;;;;;;;4959073;29;20051;-74
2021/04/15 07:14:37;;;;;;;19.13;11.35;;;;;;;;;;4958899;28;20332;-73
2021/04/15 07:17:09;;;;;;;21.85;11.60;;;;;;;;;;4959049;29;20402;-74
2021/04/15 07:19:54;;;;;;;20.30;12.05;;;;;;;;;;4958905;29;20043;-73
2021/04/15 07:22:22;;;;;;;21.08;12.18;;;;;;;;;;4941997;29;20035;-74
2021/04/15 07:25:07;;;;;;;18.98;11.73;;;;;;;;;;4942299;29;20035;-74
2021/04/15 07:27:48;;;;;;;32.08;16.13;;;;;;;;;;4959049;29;20050;-73
2021/04/15 07:30:21;;;;;;;27.25;17.00;;;;;;;;;;4958894;28;20023;-73
2021/04/15 07:33:03;;;;;;;25.88;17.52;;;;;;;;;;4958828;28;20107;-74
2021/04/15 07:35:55;;;;;;;24.77;13.80;;;;;;;;;;4941385;28;20493;-73
2021/04/15 07:38:40;;;;;;;28.75;16.48;;;;;;;;;;4958699;28;20493;-74
2021/04/15 07:41:15;;;;;;;26.40;16.52;;;;;;;;;;4958911;28;20075;-73
2021/04/15 07:43:50;;;;;;;36.00;19.73;;;;;;;;;;4958647;28;20035;-73
2021/04/15 07:46:16;;;;;;;28.10;16.60;;;;;;;;;;4958748;28;20310;-73
2021/04/15 07:48:45;;;;;;;27.27;17.05;;;;;;;;;;4941692;29;20410;-74
2021/04/15 07:51:28;;;;;;;24.58;17.83;;;;;;;;;;4958942;29;20078;-73
2021/04/15 07:54:09;;;;;;;26.30;16.70;;;;;;;;;;4958708;28;20421;-73
2021/04/15 07:56:47;;;;;;;25.80;16.33;;;;;;;;;;4958523;29;20034;-75
2021/04/15 07:59:37;;;;;;;26.17;17.20;;;;;;;;;;4958628;28;20065;-74
2021/04/15 08:02:12;;;;;;;28.60;18.38;;;;;;;;;;4881182;29;20068;-73
2021/04/15 08:04:57;;;;;;;26.83;16.35;;;;;;;;;;4881115;29;20538;-73
2021/04/15 08:07:41;;;;;;;27.88;18.45;;;;;;;;;;4865213;29;20056;-73
2021/04/15 08:10:33;;;;;;;24.83;16.35;;;;;;;;;;4884570;29;20128;-74
2021/04/15 08:13:17;;;;;;;21.88;15.43;;;;;;;;;;4829285;29;20444;-73
2021/04/15 08:15:56;;;;;;;23.70;16.02;;;;;;;;;;4828809;29;20091;-73
2021/04/15 08:18:35;;;;;;;23.15;14.13;;;;;;;;;;4829105;29;20043;-74
2021/04/15 08:21:10;;;;;;;22.98;14.15;;;;;;;;;;4828976;29;20038;-73
2021/04/15 08:23:54;;;;;;;24.05;15.63;;;;;;;;;;4829126;29;20046;-73
2021/04/15 08:26:39;;;;;;;23.17;15.65;;;;;;;;;;4828916;29;20049;-73
2021/04/15 08:29:21;;;;;;;26.50;15.88;;;;;;;;;;4828780;29;20042;-73
2021/04/15 08:31:50;;;;;;;35.58;19.52;;;;;;;;;;4828937;29;20031;-73
2021/04/15 08:34:22;;;;;;;23.92;15.05;;;;;;;;;;4828924;29;20419;-73
2021/04/15 08:36:48;;;;;;;25.67;19.17;;;;;;;;;;4828809;29;20162;-73
2021/04/15 08:39:20;;;;;;;29.55;19.67;;;;;;;;;;4864286;29;20368;-73
2021/04/15 08:41:46;;;;;;;25.13;18.08;;;;;;;;;;4903043;29;20082;-74
2021/04/15 08:44:21;;;;;;;26.40;17.30;;;;;;;;;;4902845;29;20028;-73
2021/04/15 08:46:47;;;;;;;24.63;16.67;;;;;;;;;;4902782;29;20024;-73
2021/04/15 08:49:16;;;;;;;19.17;14.43;;;;;;;;;;4919422;28;20027;-74
2021/04/15 08:52:01;;;;;;;25.08;16.90;;;;;;;;;;4961780;28;20106;-74
2021/04/15 08:54:34;;;;;;;32.67;18.83;;;;;;;;;;4944635;29;20118;-73
2021/04/15 08:57:00;;;;;;;;;;;;;;;;;;4944940;29;20031;-73
2021/04/15 08:59:31;;;;;;;23.85;16.55;;;;;;;;;;4961467;28;19913;-74
2021/04/15 09:02:16;;;;;;;26.45;16.00;;;;;;;;;;4961533;28;20027;-74
2021/04/15 09:04:57;;;;;;;29.35;18.73;;;;;;;;;;4961394;29;20031;-74
2021/04/15 09:07:35;;;;;;;24.27;15.75;;;;;;;;;;4961474;28;20031;-74
2021/04/15 09:10:04;;;;;;;24.77;16.73;;;;;;;;;;4961236;28;20126;-73
2021/04/15 09:12:49;;;;;;;20.00;14.15;;;;;;;;;;4961214;29;20031;-73
2021/04/15 09:15:22;;;;;;;23.48;15.77;;;;;;;;;;4961317;28;20023;-74
2021/04/15 09:18:00;;;;;;;22.73;16.45;;;;;;;;;;4944239;29;20100;-73
2021/04/15 09:20:32;;;;;;;65.20;25.63;;;;;;;;;;4943037;29;20465;-73
2021/04/15 09:23:19;;;;;;;86.32;30.98;;;;;;;;;;4961009;28;20077;-74
2021/04/15 09:25:47;;;;;;;57.03;22.92;;;;;;;;;;4961094;28;20031;-73
2021/04/15 09:28:31;;;;;;;74.75;30.70;;;;;;;;;;4960972;28;20036;-74
2021/04/15 09:31:11;;;;;;;30.17;18.15;;;;;;;;;;4960893;28;20422;-73
2021/04/15 09:33:53;;;;;;;36.53;21.75;;;;;;;;;;4960887;29;20041;-74
2021/04/15 09:36:19;;;;;;;23.98;17.25;;;;;;;;;;4960946;28;20024;-73
2021/04/15 09:39:04;;;;;;;22.95;15.63;;;;;;;;;;4960794;28;20131;-73
2021/04/15 09:41:52;;;;;;;26.83;15.90;;;;;;;;;;4960803;28;20366;-74
2021/04/15 09:44:37;;;;;;;16.88;13.82;;;;;;;;;;4960524;28;20030;-74
2021/04/15 09:47:18;;;;;;;18.88;12.80;;;;;;;;;;4960669;28;20044;-74
2021/04/15 09:50:06;;;;;;;17.73;13.93;;;;;;;;;;4960698;28;20029;-73
2021/04/15 09:52:32;;;;;;;21.45;15.68;;;;;;;;;;4960713;28;20042;-74
2021/04/15 09:55:05;;;;;;;25.73;14.50;;;;;;;;;;4960679;28;20023;-74
2021/04/15 09:57:31;;;;;;;17.17;13.25;;;;;;;;;;4960510;28;20031;-74
2021/04/15 10:00:01;;;;;;;23.70;15.90;;;;;;;;;;4960519;28;20306;-74
2021/04/15 10:02:37;;;;;;;23.98;15.05;;;;;;;;;;4960386;28;20114;-73
2021/04/15 10:05:23;;;;;;;23.50;17.42;;;;;;;;;;4942960;29;20444;-74
2021/04/15 10:07:55;;;;;;;26.38;16.35;;;;;;;;;;4882473;29;20070;-73
2021/04/15 10:10:23;;;;;;;22.02;16.45;;;;;;;;;;4866196;29;20372;-73
2021/04/15 10:13:13;;;;;;;24.58;15.60;;;;;;;;;;4882777;29;20041;-73
2021/04/15 10:15:54;;;;;;;21.13;15.25;;;;;;;;;;4874198;29;20029;-74
2021/04/15 10:18:26;;;;;;;22.17;15.57;;;;;;;;;;4882245;29;20041;-73
2021/04/15 10:20:55;;;;;;;19.63;14.63;;;;;;;;;;4882379;29;20128;-73
2021/04/15 10:23:59;;;;;;;20.15;14.40;;;;;;;;;;4882596;29;20036;-74
2021/04/15 10:26:28;;;;;;;27.60;15.55;;;;;;;;;;4827161;29;20372;-73
2021/04/15 10:29:13;;;;;;;23.83;13.52;;;;;;;;;;4827261;29;20288;-73
2021/04/15 10:31:48;;;;;;;20.67;11.98;;;;;;;;;;4826947;29;20038;-73
2021/04/15 10:34:15;;;;;;;18.85;12.50;;;;;;;;;;4827078;29;20489;-74
2021/04/15 10:36:47;;;;;;;16.92;12.13;;;;;;;;;;4827023;29;20438;-73
2021/04/15 10:39:22;;;;;;;20.33;13.85;;;;;;;;;;4826855;29;20046;-74
2021/04/15 10:42:06;;;;;;;21.35;14.23;;;;;;;;;;4826972;29;20039;-76
2021/04/15 10:44:38;;;;;;;19.27;13.43;;;;;;;;;;4852652;29;20036;-74
2021/04/15 10:47:04;;;;;;;19.10;14.48;;;;;;;;;;4900732;29;20084;-73
2021/04/15 10:49:45;;;;;;;22.55;13.43;;;;;;;;;;4900601;29;20467;-74
2021/04/15 10:52:22;;;;;;;19.73;12.32;;;;;;;;;;4900689;29;20064;-73
2021/04/15 10:54:48;;;;;;;25.88;14.32;;;;;;;;;;4900655;29;20025;-74
2021/04/15 10:57:14;;;;;;;19.95;12.48;;;;;;;;;;4932090;29;20374;-74
2021/04/15 10:59:42;;;;;;;18.52;12.32;;;;;;;;;;4959637;28;20027;-73
2021/04/15 11:02:15;;;;;;;22.67;15.63;;;;;;;;;;4959503;29;20035;-74
2021/04/15 11:04:41;;;;;;;60.03;26.70;;;;;;;;;;4959341;29;20027;-73
2021/04/15 11:07:27;;;;;;;88.68;31.23;;;;;;;;;;4959375;28;20032;-74
2021/04/15 11:09:55;;;;;;;102.28;29.70;;;;;;;;;;4959322;28;20043;-74
2021/04/15 11:12:32;;;;;;;67.75;25.00;;;;;;;;;;4959348;28;20059;-74
2021/04/15 11:14:58;;;;;;;35.05;17.85;;;;;;;;;;4959088;28;20039;-74
2021/04/15 11:17:27;;;;;;;30.77;17.50;;;;;;;;;;4959376;29;20031;-74
2021/04/15 11:20:12;;;;;;;24.42;14.35;;;;;;;;;;4959171;29;20054;-74
2021/04/15 11:22:40;;;;;;;55.92;26.42;;;;;;;;;;4958783;28;20118;-74
2021/04/15 11:25:15;;;;;;;59.42;29.00;;;;;;;;;;4958986;28;20028;-74
2021/04/15 11:27:41;;;;;;;39.03;23.00;;;;;;;;;;4958731;28;20031;-73
2021/04/15 11:30:08;;;;;;;44.72;25.20;;;;;;;;;;4941353;29;20043;-74
2021/04/15 11:32:36;;;;;;;44.00;25.23;;;;;;;;;;4941927;29;20055;-73
2021/04/15 11:35:08;;;;;;;25.92;16.90;;;;;;;;;;4941771;29;20039;-74
2021/04/15 11:37:34;;;;;;;;;;;;;;;;;;4942289;29;20027;-73
2021/04/15 11:40:19;;;;;;;17.73;12.38;;;;;;;;;;4958949;29;19911;-74
2021/04/15 11:42:45;;;;;;;20.83;13.48;;;;;;;;;;4958110;29;20062;-73
2021/04/15 11:45:13;;;;;;;20.48;13.05;;;;;;;;;;4941485;29;20039;-74
2021/04/15 11:47:39;;;;;;;22.83;13.45;;;;;;;;;;4958687;28;20058;-74
2021/04/15 11:50:08;;;;;;;21.83;13.50;;;;;;;;;;4958995;29;20025;-74
2021/04/15 11:52:36;;;;;;;18.70;11.80;;;;;;;;;;4941738;29;20359;-74
2021/04/15 11:55:05;;;;;;;16.50;10.82;;;;;;;;;;4958640;29;20106;-73
2021/04/15 11:57:39;;;;;;;18.02;11.02;;;;;;;;;;4958746;28;20327;-74
2021/04/15 12:00:15;;;;;;;17.60;9.65;;;;;;;;;;4958571;28;20054;-74
2021/04/15 12:02:49;;;;;;;14.15;9.90;;;;;;;;;;4941651;29;20035;-74
2021/04/15 12:05:18;;;;;;;14.65;10.40;;;;;;;;;;4958735;29;20028;-74
2021/04/15 12:07:53;;;;;;;15.77;10.48;;;;;;;;;;4941632;29;20488;-74
2021/04/15 12:10:21;;;;;;;19.58;12.45;;;;;;;;;;4958437;29;20053;-73
2021/04/15 12:12:48;;;;;;;18.83;12.13;;;;;;;;;;4958417;28;20027;-74
2021/04/15 12:15:17;;;;;;;19.63;11.63;;;;;;;;;;4941085;29;20034;-74
2021/04/15 12:17:54;;;;;;;14.13;10.60;;;;;;;;;;4958545;28;20073;-73
2021/04/15 12:20:26;;;;;;;12.45;8.65;;;;;;;;;;4941410;29;20035;-74
2021/04/15 12:23:02;;;;;;;12.83;9.53;;;;;;;;;;4958521;29;20027;-74
2021/04/15 12:25:34;;;;;;;13.45;9.68;;;;;;;;;;4941795;29;20054;-73
2021/04/15 12:28:12;;;;;;;13.10;8.85;;;;;;;;;;4958324;29;20035;-74
2021/04/15 12:30:41;;;;;;;15.43;10.07;;;;;;;;;;4958354;29;20027;-74
2021/04/15 12:33:12;;;;;;;17.67;11.45;;;;;;;;;;4958358;29;20031;-74
2021/04/15 12:35:50;;;;;;;9.73;6.97;;;;;;;;;;4958448;28;20023;-74
2021/04/15 12:38:21;;;;;;;11.70;7.70;;;;;;;;;;4958244;29;20051;-74
2021/04/15 12:40:49;;;;;;;9.60;7.53;;;;;;;;;;4958444;29;20069;-73
2021/04/15 12:43:17;;;;;;;8.60;5.88;;;;;;;;;;4958220;28;20035;-73
2021/04/15 12:45:52;;;;;;;7.68;5.28;;;;;;;;;;4958342;29;20033;-73
2021/04/15 12:48:47;;;;;;;9.18;6.05;;;;;;;;;;4958401;28;20110;-73
2021/04/15 12:51:15;;;;;;;8.18;5.20;;;;;;;;;;4880677;29;20045;-73
2021/04/15 12:53:43;;;;;;;8.40;5.03;;;;;;;;;;4881386;29;20061;-73
2021/04/15 12:56:12;;;;;;;10.88;5.20;;;;;;;;;;4883990;29;20062;-73
2021/04/15 12:58:38;;;;;;;9.55;6.10;;;;;;;;;;4884095;29;20077;-74
2021/04/15 13:01:05;;;;;;;11.02;6.32;;;;;;;;;;4883846;29;20117;-74
2021/04/15 13:03:31;;;;;;;11.20;6.25;;;;;;;;;;4883908;29;20040;-73
2021/04/15 13:06:02;;;;;;;8.18;5.88;;;;;;;;;;4883628;29;20459;-73
2021/04/15 13:08:34;;;;;;;11.57;6.72;;;;;;;;;;4883518;29;20077;-73
2021/04/15 13:11:05;;;;;;;9.05;6.50;;;;;;;;;;4883512;29;20053;-73
2021/04/15 13:13:37;;;;;;;11.85;9.43;;;;;;;;;;4883565;29;20037;-73
2021/04/15 13:16:06;;;;;;;11.27;7.68;;;;;;;;;;4883607;29;20037;-74
2021/04/15 13:18:37;;;;;;;9.82;6.63;;;;;;;;;;4883578;29;20056;-74
2021/04/15 13:21:07;;;;;;;10.32;7.03;;;;;;;;;;4883621;29;20041;-74
2021/04/15 13:23:38;;;;;;;7.82;6.20;;;;;;;;;;4868433;29;20041;-80
2021/04/15 13:26:04;;;;;;;8.20;5.72;;;;;;;;;;4868601;29;20064;-82
2021/04/15 13:28:39;;;;;;;9.32;5.57;;;;;;;;;;4940866;28;20047;-82
2021/04/15 13:31:05;;;;;;;7.28;4.40;;;;;;;;;;4961149;28;20023;-81
2021/04/15 13:33:31;;;;;;;8.10;5.32;;;;;;;;;;4961214;29;20020;-80
2021/04/15 13:36:01;;;;;;;7.18;5.28;;;;;;;;;;4961191;29;20023;-81
2021/04/15 13:41:26;;;;;;;16.92;10.13;;;;;;;;;;4902233;29;20385;-80
2021/04/15 13:43:58;;;;;;;18.17;11.07;;;;;;;;;;4902123;29;20055;-80
2021/04/15 13:46:30;;;;;;;20.42;12.05;;;;;;;;;;4902153;29;20032;-80
2021/04/15 13:49:02;;;;;;;11.57;7.20;;;;;;;;;;4902070;29;20040;-80
2021/04/15 13:51:29;;;;;;;10.85;7.38;;;;;;;;;;4901953;29;20056;-80
2021/04/15 13:56:54;;;;;;;15.05;9.13;;;;;;;;;;4846023;29;20037;-82
2021/04/15 14:02:16;;;;;;;8.02;5.97;;;;;;;;;;4845971;29;20370;-81
2021/04/15 14:04:57;;;;;;;26.00;15.23;;;;;;;;;;4846051;29;20063;-81
2021/04/15 14:07:35;;;;;;;13.00;7.65;;;;;;;;;;4845828;29;20037;-80
2021/04/15 14:10:13;;;;;;;9.55;7.20;;;;;;;;;;4845778;29;20050;-80
2021/04/15 14:13:15;;;;;;;23.17;15.52;;;;;;;;;;4845924;29;20045;-80
2021/04/15 14:15:47;;;;;;;35.00;19.63;;;;;;;;;;4846007;29;20931;-81
2021/04/15 14:18:33;;;;;;;34.00;19.75;;;;;;;;;;4882834;29;20068;-81
2021/04/15 14:21:10;;;;;;;17.38;10.85;;;;;;;;;;4882369;29;20037;-81
2021/04/15 14:23:42;;;;;;;25.92;16.05;;;;;;;;;;4866898;29;20043;-80
2021/04/15 14:26:13;;;;;;;13.85;8.40;;;;;;;;;;4882669;29;20044;-81
2021/04/15 14:28:40;;;;;;;14.00;8.25;;;;;;;;;;4882524;29;20036;-80
2021/04/15 14:31:18;;;;;;;9.35;5.90;;;;;;;;;;4882446;29;20053;-80
2021/04/15 14:33:45;;;;;;;15.43;9.57;;;;;;;;;;4903825;28;20035;-81
2021/04/15 14:36:24;;;;;;;9.75;6.70;;;;;;;;;;4942603;29;20366;-80
2021/04/15 14:38:51;;;;;;;14.63;9.13;;;;;;;;;;4960009;28;20038;-81
2021/04/15 14:41:25;;;;;;;10.07;5.40;;;;;;;;;;4959998;28;20032;-80
2021/04/15 14:43:51;;;;;;;11.75;6.30;;;;;;;;;;4942713;29;20031;-80
2021/04/15 14:46:21;;;;;;;11.98;6.50;;;;;;;;;;4942374;28;20112;-80
2021/04/15 14:48:47;;;;;;;11.13;6.75;;;;;;;;;;4959933;28;20031;-81
2021/04/15 14:51:15;;;;;;;10.43;4.95;;;;;;;;;;4942708;29;20024;-81
2021/04/15 14:53:42;;;;;;;8.75;5.68;;;;;;;;;;4959662;28;20027;-82
2021/04/15 14:56:14;;;;;;;7.65;3.45;;;;;;;;;;4942158;29;20121;-81
2021/04/15 14:58:42;;;;;;;8.63;5.10;;;;;;;;;;4959523;28;20038;-81
2021/04/15 15:01:15;;;;;;;7.07;4.43;;;;;;;;;;4959560;28;20035;-81
2021/04/15 15:03:42;;;;;;;9.73;6.25;;;;;;;;;;4959533;29;20031;-81
2021/04/15 15:06:10;;;;;;;11.52;7.22;;;;;;;;;;4942500;29;20023;-81
2021/04/15 15:08:42;;;;;;;17.63;8.90;;;;;;;;;;4959126;28;20035;-81
2021/04/15 15:11:08;;;;;;;23.65;10.05;;;;;;;;;;4959241;29;20063;-81